Olivet, Michigan
Current Conditions -  °F | °C
As of 5:15 PM on Thursday 18 Dec 2014 (Local Time) from KFPK Reporting Station
Haze Haze  
Wind Chill: 22°   Ceiling: 1000
Heat Index: 29°   Visibility: 3mi
Dew Point: 27°   Wind: 7mph
Humidity: 92%   Direction: 260°W
Pressure: 30.16"   Gusts: NA
Location:  42.44°N, 84.92°W
Report Text: KFPK 182215Z AUTO 26006KT 3SM BR OVC010 M02/M03 A3016 RMK AO2 T10161027
Loading
Personal Weather Stations






























Interactive Weather Map New forecast layout! Learn more

10-Day Weather Forecast

Advertisements
Track Severe Weather on mobile